Time,TemperatureF,DewpointF,PressureIn,WindDirection,WindDirectionDegrees,WindSpeedMPH,WindSpeedGustMPH,Humidity,HourlyPrecipIn,Conditions,Clouds,dailyrainin,SoftwareType,DateUTC
2013-06-19 00:04:00,57.8,51.3,29.91,West,268,0.0,0.0,79,0.00,,,0.00,Wunderground v.1.15,2013-06-19 04:04:00,
2013-06-19 00:14:00,57.6,50.8,29.91,West,268,0.0,0.0,78,0.00,,,0.00,Wunderground v.1.15,2013-06-19 04:14:00,
2013-06-19 00:19:00,57.4,49.9,29.91,West,268,0.0,0.0,76,0.00,,,0.00,Wunderground v.1.15,2013-06-19 04:19:00,
2013-06-19 00:24:00,57.3,49.4,29.91,West,268,0.0,0.0,75,0.00,,,0.00,Wunderground v.1.15,2013-06-19 04:24:00,
2013-06-19 00:30:00,57.2,49.0,29.91,West,267,0.0,0.0,74,0.00,,,0.00,Wunderground v.1.15,2013-06-19 04:30:00,
2013-06-19 00:35:00,57.2,48.3,29.91,West,267,0.0,0.0,72,0.00,,,0.00,Wunderground v.1.15,2013-06-19 04:35:00,
2013-06-19 00:40:00,57.1,47.4,29.91,West,268,0.0,0.0,70,0.00,,,0.00,Wunderground v.1.15,2013-06-19 04:40:00,
2013-06-19 00:45:00,57.2,46.7,29.91,West,268,0.0,0.0,68,0.00,,,0.00,Wunderground v.1.15,2013-06-19 04:45:00,
2013-06-19 00:55:00,56.9,47.6,29.91,West,268,0.0,0.0,71,0.00,,,0.00,Wunderground v.1.15,2013-06-19 04:55:00,
2013-06-19 01:00:00,56.8,47.1,29.91,West,268,0.0,0.0,70,0.00,,,0.00,Wunderground v.1.15,2013-06-19 05:00:00,
2013-06-19 01:05:00,56.8,46.7,29.91,West,268,0.0,0.0,69,0.00,,,0.00,Wunderground v.1.15,2013-06-19 05:05:00,
2013-06-19 01:10:00,56.7,47.0,29.91,West,267,0.0,0.0,70,0.00,,,0.00,Wunderground v.1.15,2013-06-19 05:10:00,
2013-06-19 01:19:00,56.4,44.8,29.91,West,267,0.0,0.0,65,0.00,,,0.00,Wunderground v.1.15,2013-06-19 05:19:00,
2013-06-19 01:29:00,56.1,44.5,29.91,West,268,0.0,0.0,65,0.00,,,0.00,Wunderground v.1.15,2013-06-19 05:29:00,
2013-06-19 01:35:00,56.1,43.3,29.91,West,268,0.0,0.0,62,0.00,,,0.00,Wunderground v.1.15,2013-06-19 05:35:00,
2013-06-19 01:40:00,56.0,44.0,29.91,West,268,0.0,0.0,64,0.00,,,0.00,Wunderground v.1.15,2013-06-19 05:40:00,
2013-06-19 01:50:00,55.7,43.3,29.91,West,267,0.0,0.0,63,0.00,,,0.00,Wunderground v.1.15,2013-06-19 05:50:00,
2013-06-19 01:55:00,55.6,42.8,29.91,West,268,0.0,0.0,62,0.00,,,0.00,Wunderground v.1.15,2013-06-19 05:55:00,
2013-06-19 02:00:00,55.8,40.3,29.91,West,268,0.0,0.0,56,0.00,,,0.00,Wunderground v.1.15,2013-06-19 06:00:00,
2013-06-19 02:09:00,55.7,44.9,29.91,West,268,0.0,0.0,67,0.00,,,0.00,Wunderground v.1.15,2013-06-19 06:09:00,
2013-06-19 02:14:00,55.7,44.9,29.91,West,263,0.0,0.0,67,0.00,,,0.00,Wunderground v.1.15,2013-06-19 06:14:00,
2013-06-19 02:25:00,55.5,45.5,29.91,WNW,288,0.0,0.0,69,0.00,,,0.00,Wunderground v.1.15,2013-06-19 06:25:00,
2013-06-19 02:35:00,55.2,45.2,29.91,WNW,288,0.0,0.0,69,0.00,,,0.00,Wunderground v.1.15,2013-06-19 06:35:00,
2013-06-19 02:45:00,54.8,44.4,29.90,WNW,288,0.0,0.0,68,0.00,,,0.00,Wunderground v.1.15,2013-06-19 06:45:00,
2013-06-19 02:54:00,54.6,40.1,29.91,WNW,288,0.0,0.0,58,0.00,,,0.00,Wunderground v.1.15,2013-06-19 06:54:00,
2013-06-19 02:59:00,54.5,40.5,29.90,WNW,286,0.0,0.0,59,0.00,,,0.00,Wunderground v.1.15,2013-06-19 06:59:00,
2013-06-19 03:05:00,54.4,38.6,29.90,WNW,286,0.0,0.0,55,0.00,,,0.00,Wunderground v.1.15,2013-06-19 07:05:00,
2013-06-19 03:10:00,54.3,40.7,29.90,WNW,286,0.0,0.0,60,0.00,,,0.00,Wunderground v.1.15,2013-06-19 07:10:00,
2013-06-19 03:15:00,53.7,43.4,29.90,WNW,286,0.0,0.0,68,0.00,,,0.00,Wunderground v.1.15,2013-06-19 07:15:00,
2013-06-19 03:20:00,53.3,41.8,29.90,West,271,0.0,0.0,65,0.00,,,0.00,Wunderground v.1.15,2013-06-19 07:20:00,
2013-06-19 03:30:00,53.0,36.3,29.91,West,271,0.0,0.0,53,0.00,,,0.00,Wunderground v.1.15,2013-06-19 07:30:00,
2013-06-19 03:39:00,53.1,32.3,29.91,West,271,0.0,0.0,45,0.00,,,0.00,Wunderground v.1.15,2013-06-19 07:39:00,
2013-06-19 03:49:00,53.1,28.8,29.91,NW,307,0.0,2.0,39,0.00,,,0.00,Wunderground v.1.15,2013-06-19 07:49:00,
2013-06-19 03:54:00,53.3,26.3,29.91,WNW,294,1.0,4.0,35,0.00,,,0.00,Wunderground v.1.15,2013-06-19 07:54:00,
2013-06-19 04:00:00,53.4,25.7,29.91,WNW,294,4.0,4.0,34,0.00,,,0.00,Wunderground v.1.15,2013-06-19 08:00:00,
2013-06-19 04:10:00,52.7,40.0,29.91,WNW,288,3.0,5.0,62,0.00,,,0.00,Wunderground v.1.15,2013-06-19 08:10:00,
2013-06-19 04:15:00,52.7,35.6,29.91,WNW,296,4.0,5.0,52,0.00,,,0.00,Wunderground v.1.15,2013-06-19 08:15:00,
2013-06-19 04:25:00,53.2,40.5,29.90,NNW,335,3.0,5.0,62,0.00,,,0.00,Wunderground v.1.15,2013-06-19 08:25:00,
2013-06-19 04:30:00,53.7,48.3,29.90,WNW,294,3.0,4.0,82,0.00,,,0.00,Wunderground v.1.15,2013-06-19 08:30:00,
2013-06-19 04:35:00,54.1,50.3,29.90,WNW,288,4.0,5.0,87,0.00,,,0.00,Wunderground v.1.15,2013-06-19 08:35:00,
2013-06-19 04:44:00,54.7,50.9,29.91,WNW,288,4.0,4.0,87,0.00,,,0.00,Wunderground v.1.15,2013-06-19 08:44:00,
2013-06-19 04:49:00,54.7,50.6,29.91,WNW,286,3.0,3.0,86,0.00,,,0.00,Wunderground v.1.15,2013-06-19 08:49:00,
2013-06-19 04:55:00,54.6,50.5,29.91,WNW,302,4.0,5.0,86,0.00,,,0.00,Wunderground v.1.15,2013-06-19 08:55:00,
2013-06-19 05:00:00,54.6,50.5,29.91,WNW,297,5.0,5.0,86,0.00,,,0.00,Wunderground v.1.15,2013-06-19 09:00:00,
2013-06-19 05:10:00,54.2,50.1,29.91,WNW,302,3.0,3.0,86,0.00,,,0.00,Wunderground v.1.15,2013-06-19 09:10:00,
2013-06-19 05:15:00,54.2,49.8,29.92,WNW,291,3.0,3.0,85,0.00,,,0.00,Wunderground v.1.15,2013-06-19 09:15:00,
2013-06-19 05:20:00,54.4,50.0,29.92,NW,313,2.0,2.0,85,0.00,,,0.00,Wunderground v.1.15,2013-06-19 09:20:00,
2013-06-19 05:30:00,54.0,49.6,29.92,WNW,296,1.0,2.0,85,0.00,,,0.00,Wunderground v.1.15,2013-06-19 09:30:00,
2013-06-19 05:39:00,53.8,49.4,29.92,WNW,295,4.0,4.0,85,0.00,,,0.00,Wunderground v.1.15,2013-06-19 09:39:00,
2013-06-19 05:50:00,54.3,49.6,29.92,WNW,286,5.0,6.0,84,0.00,,,0.00,Wunderground v.1.15,2013-06-19 09:50:00,
2013-06-19 06:00:00,54.5,49.4,29.93,NW,304,6.0,6.0,83,0.00,,,0.00,Wunderground v.1.15,2013-06-19 10:00:00,
2013-06-19 06:05:00,55.0,49.6,29.93,WNW,282,6.0,7.0,82,0.00,,,0.00,Wunderground v.1.15,2013-06-19 10:05:00,
2013-06-19 06:15:00,55.3,49.6,29.93,NW,310,7.0,7.0,81,0.00,,,0.00,Wunderground v.1.15,2013-06-19 10:15:00,
2013-06-19 06:25:00,55.9,49.8,29.93,WNW,286,6.0,6.0,80,0.00,,,0.00,Wunderground v.1.15,2013-06-19 10:25:00,
2013-06-19 06:30:00,56.4,49.3,29.93,NW,304,5.0,5.0,77,0.00,,,0.00,Wunderground v.1.15,2013-06-19 10:30:00,
2013-06-19 06:35:00,56.8,49.7,29.93,West,280,5.0,5.0,77,0.00,,,0.00,Wunderground v.1.15,2013-06-19 10:35:00,
2013-06-19 06:44:00,56.7,50.3,29.93,WNW,286,6.0,6.0,79,0.00,,,0.00,Wunderground v.1.15,2013-06-19 10:44:00,
2013-06-19 06:50:00,57.0,49.9,29.93,WNW,298,6.0,9.0,77,0.00,,,0.00,Wunderground v.1.15,2013-06-19 10:50:00,
2013-06-19 07:00:00,57.2,50.4,29.94,WNW,291,6.0,6.0,78,0.00,,,0.00,Wunderground v.1.15,2013-06-19 11:00:00,
2013-06-19 07:10:00,57.3,50.8,29.94,WNW,288,5.0,5.0,79,0.00,,,0.00,Wunderground v.1.15,2013-06-19 11:10:00,
2013-06-19 07:20:00,57.7,51.2,29.94,NW,311,4.0,4.0,79,0.00,,,0.00,Wunderground v.1.15,2013-06-19 11:20:00,
2013-06-19 07:29:00,58.6,51.4,29.94,WNW,282,4.0,4.0,77,0.00,,,0.00,Wunderground v.1.15,2013-06-19 11:29:00,
2013-06-19 07:40:00,59.5,51.2,29.94,NW,304,4.0,4.0,74,0.00,,,0.00,Wunderground v.1.15,2013-06-19 11:40:00,
2013-06-19 07:50:00,60.8,51.7,29.94,NE,38,2.0,2.0,72,0.00,,,0.00,Wunderground v.1.15,2013-06-19 11:50:00,
2013-06-19 08:00:00,61.4,50.3,29.94,ENE,61,3.0,3.0,67,0.00,,,0.00,Wunderground v.1.15,2013-06-19 12:00:00,
2013-06-19 08:05:00,62.0,50.5,29.94,North,350,2.0,3.0,66,0.00,,,0.00,Wunderground v.1.15,2013-06-19 12:05:00,
2013-06-19 08:14:00,62.5,50.6,29.94,ENE,61,2.0,3.0,65,0.00,,,0.00,Wunderground v.1.15,2013-06-19 12:14:00,
2013-06-19 08:25:00,62.7,50.3,29.94,ENE,58,2.0,2.0,64,0.00,,,0.00,Wunderground v.1.15,2013-06-19 12:25:00,
2013-06-19 08:35:00,64.1,51.2,29.94,NE,40,1.0,4.0,63,0.00,,,0.00,Wunderground v.1.15,2013-06-19 12:35:00,
2013-06-19 08:45:00,63.7,51.3,29.94,NE,42,3.0,3.0,64,0.00,,,0.00,Wunderground v.1.15,2013-06-19 12:45:00,
2013-06-19 08:55:00,63.5,52.7,29.95,ENE,64,2.0,3.0,68,0.00,,,0.00,Wunderground v.1.15,2013-06-19 12:55:00,
2013-06-19 09:00:00,63.8,51.0,29.95,NE,55,2.0,2.0,63,0.00,,,0.00,Wunderground v.1.15,2013-06-19 13:00:00,
2013-06-19 09:09:00,64.7,51.8,29.95,ENE,63,2.0,2.0,63,0.00,,,0.00,Wunderground v.1.15,2013-06-19 13:09:00,
2013-06-19 09:14:00,64.6,52.6,29.95,NE,49,2.0,3.0,65,0.00,,,0.00,Wunderground v.1.15,2013-06-19 13:14:00,
2013-06-19 09:20:00,65.2,51.8,29.95,NE,48,2.0,3.0,62,0.00,,,0.00,Wunderground v.1.15,2013-06-19 13:20:00,
2013-06-19 09:25:00,66.2,52.3,29.95,WNW,294,2.0,4.0,61,0.00,,,0.00,Wunderground v.1.15,2013-06-19 13:25:00,
2013-06-19 09:30:00,66.7,51.9,29.95,NW,311,2.0,2.0,59,0.00,,,0.00,Wunderground v.1.15,2013-06-19 13:30:00,
2013-06-19 09:40:00,66.6,50.9,29.95,NE,53,4.0,4.0,57,0.00,,,0.00,Wunderground v.1.15,2013-06-19 13:40:00,
2013-06-19 09:49:00,66.0,49.8,29.95,NNW,333,4.0,4.0,56,0.00,,,0.00,Wunderground v.1.15,2013-06-19 13:49:00,
2013-06-19 09:54:00,66.1,49.9,29.96,ENE,73,4.0,4.0,56,0.00,,,0.00,Wunderground v.1.15,2013-06-19 13:54:00,
2013-06-19 09:59:00,66.8,50.1,29.95,NE,46,4.0,5.0,55,0.00,,,0.00,Wunderground v.1.15,2013-06-19 13:59:00,
2013-06-19 10:05:00,66.8,52.0,29.95,NE,53,3.0,5.0,59,0.00,,,0.00,Wunderground v.1.15,2013-06-19 14:05:00,
2013-06-19 10:15:00,67.4,50.7,29.95,NW,323,3.0,4.0,55,0.00,,,0.00,Wunderground v.1.15,2013-06-19 14:15:00,
2013-06-19 10:25:00,67.7,48.4,29.95,NW,309,5.0,5.0,50,0.00,,,0.00,Wunderground v.1.15,2013-06-19 14:25:00,
2013-06-19 10:35:00,68.1,48.8,29.96,WNW,300,4.0,7.0,50,0.00,,,0.00,Wunderground v.1.15,2013-06-19 14:35:00,
2013-06-19 10:40:00,68.0,48.7,29.96,NNE,27,5.0,5.0,50,0.00,,,0.00,Wunderground v.1.15,2013-06-19 14:40:00,
2013-06-19 10:45:00,68.1,48.8,29.96,NW,309,5.0,11.0,50,0.00,,,0.00,Wunderground v.1.15,2013-06-19 14:45:00,
2013-06-19 10:50:00,68.3,47.3,29.96,West,265,6.0,7.0,47,0.00,,,0.00,Wunderground v.1.15,2013-06-19 14:50:00,
2013-06-19 11:00:00,68.0,47.6,29.96,West,276,8.0,12.0,48,0.00,,,0.00,Wunderground v.1.15,2013-06-19 15:00:00,
2013-06-19 11:10:00,68.5,48.6,29.96,WNW,292,7.0,8.0,49,0.00,,,0.00,Wunderground v.1.15,2013-06-19 15:10:00,
2013-06-19 11:20:00,69.0,50.1,29.96,ENE,67,6.0,6.0,51,0.00,,,0.00,Wunderground v.1.15,2013-06-19 15:20:00,
2013-06-19 11:30:00,68.9,50.0,29.96,WNW,294,5.0,6.0,51,0.00,,,0.00,Wunderground v.1.15,2013-06-19 15:30:00,
2013-06-19 11:39:00,68.7,48.8,29.97,WNW,286,9.0,9.0,49,0.00,,,0.00,Wunderground v.1.15,2013-06-19 15:39:00,
2013-06-19 11:45:00,68.9,47.8,29.96,WNW,296,9.0,12.0,47,0.00,,,0.00,Wunderground v.1.15,2013-06-19 15:45:00,
2013-06-19 11:55:00,69.6,48.5,29.97,WNW,302,6.0,15.0,47,0.00,,,0.00,Wunderground v.1.15,2013-06-19 15:55:00,
2013-06-19 12:05:00,69.4,48.3,29.97,WNW,288,9.0,13.0,47,0.00,,,0.00,Wunderground v.1.15,2013-06-19 16:05:00,
2013-06-19 12:15:00,69.7,47.4,29.97,WNW,300,6.0,13.0,45,0.00,,,0.00,Wunderground v.1.15,2013-06-19 16:15:00,
2013-06-19 12:25:00,69.7,46.2,29.98,WNW,288,8.0,12.0,43,0.00,,,0.00,Wunderground v.1.15,2013-06-19 16:25:00,
2013-06-19 12:34:00,69.6,46.1,29.97,West,268,9.0,9.0,43,0.00,,,0.00,Wunderground v.1.15,2013-06-19 16:34:00,
2013-06-19 12:45:00,69.9,44.5,29.97,NW,321,6.0,9.0,40,0.00,,,0.00,Wunderground v.1.15,2013-06-19 16:45:00,
2013-06-19 12:55:00,69.9,45.1,29.97,NW,307,7.0,7.0,41,0.00,,,0.00,Wunderground v.1.15,2013-06-19 16:55:00,
2013-06-19 13:00:00,70.1,46.6,29.97,WNW,300,6.0,9.0,43,0.00,,,0.00,Wunderground v.1.15,2013-06-19 17:00:00,
2013-06-19 13:10:00,69.9,47.6,29.97,NW,323,8.0,8.0,45,0.00,,,0.00,Wunderground v.1.15,2013-06-19 17:10:00,
2013-06-19 13:20:00,70.6,45.7,29.96,NW,306,5.0,14.0,41,0.00,,,0.00,Wunderground v.1.15,2013-06-19 17:20:00,
2013-06-19 13:25:00,70.9,47.9,29.96,NNW,333,6.0,14.0,44,0.00,,,0.00,Wunderground v.1.15,2013-06-19 17:25:00,
2013-06-19 13:30:00,71.3,45.7,29.96,WNW,288,7.0,7.0,40,0.00,,,0.00,Wunderground v.1.15,2013-06-19 17:30:00,
2013-06-19 13:40:00,70.3,47.3,29.96,NNE,17,7.0,7.0,44,0.00,,,0.00,Wunderground v.1.15,2013-06-19 17:40:00,
2013-06-19 13:50:00,70.1,45.9,29.97,WNW,283,8.0,8.0,42,0.00,,,0.00,Wunderground v.1.15,2013-06-19 17:50:00,
2013-06-19 14:00:00,70.1,45.9,29.97,WNW,282,6.0,6.0,42,0.00,,,0.00,Wunderground v.1.15,2013-06-19 18:00:00,
2013-06-19 14:05:00,70.4,45.6,29.97,NNE,13,6.0,6.0,41,0.00,,,0.00,Wunderground v.1.15,2013-06-19 18:05:00,
2013-06-19 14:15:00,70.6,43.7,29.97,West,271,5.0,5.0,38,0.00,,,0.00,Wunderground v.1.15,2013-06-19 18:15:00,
2013-06-19 14:25:00,70.6,44.4,29.97,WNW,291,6.0,6.0,39,0.00,,,0.00,Wunderground v.1.15,2013-06-19 18:25:00,
2013-06-19 14:35:00,70.9,45.4,29.97,West,280,4.0,8.0,40,0.00,,,0.00,Wunderground v.1.15,2013-06-19 18:35:00,
2013-06-19 14:45:00,70.8,44.6,29.97,WNW,300,8.0,8.0,39,0.00,,,0.00,Wunderground v.1.15,2013-06-19 18:45:00,
2013-06-19 14:55:00,71.4,46.5,29.98,WNW,296,7.0,8.0,41,0.00,,,0.00,Wunderground v.1.15,2013-06-19 18:55:00,
2013-06-19 15:05:00,71.6,47.9,29.97,WNW,291,8.0,9.0,43,0.00,,,0.00,Wunderground v.1.15,2013-06-19 19:05:00,
2013-06-19 15:10:00,71.5,45.2,29.97,East,94,8.0,8.0,39,0.00,,,0.00,Wunderground v.1.15,2013-06-19 19:10:00,
2013-06-19 15:15:00,71.7,45.4,29.98,WNW,295,8.0,8.0,39,0.00,,,0.00,Wunderground v.1.15,2013-06-19 19:15:00,
2013-06-19 15:19:00,71.7,45.4,29.98,WNW,285,7.0,7.0,39,0.00,,,0.00,Wunderground v.1.15,2013-06-19 19:19:00,
2013-06-19 15:30:00,72.5,47.5,29.97,WNW,286,4.0,12.0,41,0.00,,,0.00,Wunderground v.1.15,2013-06-19 19:30:00,
2013-06-19 15:40:00,72.0,47.0,29.98,NNW,340,6.0,6.0,41,0.00,,,0.00,Wunderground v.1.15,2013-06-19 19:40:00,
2013-06-19 15:45:00,72.2,45.9,29.98,WNW,292,5.0,11.0,39,0.00,,,0.00,Wunderground v.1.15,2013-06-19 19:45:00,
2013-06-19 15:50:00,72.2,47.2,29.98,NW,313,6.0,8.0,41,0.00,,,0.00,Wunderground v.1.15,2013-06-19 19:50:00,
2013-06-19 15:59:00,72.5,46.1,29.98,NNE,15,3.0,3.0,39,0.00,,,0.00,Wunderground v.1.15,2013-06-19 19:59:00,
2013-06-19 16:04:00,72.7,47.0,29.98,WSW,237,2.0,3.0,40,0.00,,,0.00,Wunderground v.1.15,2013-06-19 20:04:00,
2013-06-19 16:10:00,72.7,44.9,29.98,WSW,255,4.0,4.0,37,0.00,,,0.00,Wunderground v.1.15,2013-06-19 20:10:00,
2013-06-19 16:15:00,72.8,45.0,29.98,WNW,297,5.0,11.0,37,0.00,,,0.00,Wunderground v.1.15,2013-06-19 20:15:00,
2013-06-19 16:25:00,72.8,46.4,29.98,NNW,346,4.0,6.0,39,0.00,,,0.00,Wunderground v.1.15,2013-06-19 20:25:00,
2013-06-19 16:35:00,72.9,45.8,29.98,NNE,27,4.0,5.0,38,0.00,,,0.00,Wunderground v.1.15,2013-06-19 20:35:00,
2013-06-19 16:40:00,73.1,45.3,29.98,NNW,329,4.0,4.0,37,0.00,,,0.00,Wunderground v.1.15,2013-06-19 20:40:00,
2013-06-19 16:45:00,73.3,45.4,29.98,WNW,288,3.0,5.0,37,0.00,,,0.00,Wunderground v.1.15,2013-06-19 20:45:00,
2013-06-19 16:54:00,73.1,43.8,29.99,NNW,348,6.0,8.0,35,0.00,,,0.00,Wunderground v.1.15,2013-06-19 20:54:00,
2013-06-19 16:59:00,72.9,43.6,29.99,NNW,340,5.0,5.0,35,0.00,,,0.00,Wunderground v.1.15,2013-06-19 20:59:00,
2013-06-19 17:05:00,73.1,44.5,29.99,West,275,4.0,5.0,36,0.00,,,0.00,Wunderground v.1.15,2013-06-19 21:05:00,
2013-06-19 17:10:00,73.7,47.2,29.99,WNW,294,2.0,4.0,39,0.00,,,0.00,Wunderground v.1.15,2013-06-19 21:10:00,
2013-06-19 17:20:00,73.1,44.5,29.99,WNW,294,6.0,6.0,36,0.00,,,0.00,Wunderground v.1.15,2013-06-19 21:20:00,
2013-06-19 17:30:00,72.4,49.3,29.99,NE,52,4.0,4.0,44,0.00,,,0.00,Wunderground v.1.15,2013-06-19 21:30:00,
2013-06-19 17:40:00,70.7,51.1,29.99,East,80,1.0,1.0,50,0.00,,,0.00,Wunderground v.1.15,2013-06-19 21:40:00,
2013-06-19 17:50:00,70.5,49.3,30.00,East,101,2.0,2.0,47,0.00,,,0.00,Wunderground v.1.15,2013-06-19 21:50:00,
2013-06-19 18:00:00,70.7,51.1,30.00,NW,304,2.0,2.0,50,0.00,,,0.00,Wunderground v.1.15,2013-06-19 22:00:00,
2013-06-19 18:10:00,70.6,51.6,30.00,SSE,150,1.0,1.0,51,0.00,,,0.00,Wunderground v.1.15,2013-06-19 22:10:00,
2013-06-19 18:15:00,70.5,51.5,30.00,ENE,63,1.0,1.0,51,0.00,,,0.00,Wunderground v.1.15,2013-06-19 22:15:00,
2013-06-19 18:25:00,70.3,51.3,30.00,SE,131,1.0,6.0,51,0.00,,,0.00,Wunderground v.1.15,2013-06-19 22:25:00,
2013-06-19 18:34:00,70.4,51.9,30.01,South,190,3.0,4.0,52,0.00,,,0.00,Wunderground v.1.15,2013-06-19 22:34:00,
2013-06-19 18:40:00,71.2,50.5,30.01,South,175,2.0,2.0,48,0.00,,,0.00,Wunderground v.1.15,2013-06-19 22:40:00,
2013-06-19 18:45:00,71.9,51.1,30.01,SSE,148,1.0,2.0,48,0.00,,,0.00,Wunderground v.1.15,2013-06-19 22:45:00,
2013-06-19 18:55:00,70.4,53.0,30.01,ESE,121,1.0,1.0,54,0.00,,,0.00,Wunderground v.1.15,2013-06-19 22:55:00,
2013-06-19 19:00:00,69.8,52.4,30.01,SE,131,1.0,2.0,54,0.00,,,0.00,Wunderground v.1.15,2013-06-19 23:00:00,
2013-06-19 19:10:00,69.8,51.9,30.02,ESE,115,1.0,1.0,53,0.00,,,0.00,Wunderground v.1.15,2013-06-19 23:10:00,
2013-06-19 19:20:00,70.9,54.4,30.02,SSE,154,0.0,0.0,56,0.00,,,0.00,Wunderground v.1.15,2013-06-19 23:20:00,
2013-06-19 19:25:00,70.0,54.1,30.02,SE,136,0.0,1.0,57,0.00,,,0.00,Wunderground v.1.15,2013-06-19 23:25:00,
2013-06-19 19:30:00,69.2,55.2,30.02,SE,129,0.0,2.0,61,0.00,,,0.00,Wunderground v.1.15,2013-06-19 23:30:00,
2013-06-19 19:40:00,67.8,56.0,30.02,SE,124,0.0,0.0,66,0.00,,,0.00,Wunderground v.1.15,2013-06-19 23:40:00,
2013-06-19 19:50:00,67.4,56.5,30.03,ESE,123,0.0,0.0,68,0.00,,,0.00,Wunderground v.1.15,2013-06-19 23:50:00,
2013-06-19 19:55:00,67.1,56.6,30.03,ESE,122,0.0,0.0,69,0.00,,,0.00,Wunderground v.1.15,2013-06-19 23:55:00,
2013-06-19 20:00:00,66.0,56.7,30.03,ESE,123,0.0,0.0,72,0.00,,,0.00,Wunderground v.1.15,2013-06-20 00:00:00,
2013-06-19 20:10:00,63.8,56.4,30.03,ESE,105,0.0,0.0,77,0.00,,,0.00,Wunderground v.1.15,2013-06-20 00:10:00,
2013-06-19 20:15:00,63.0,56.4,30.03,ESE,118,0.0,1.0,79,0.00,,,0.00,Wunderground v.1.15,2013-06-20 00:15:00,
2013-06-19 20:20:00,62.3,56.4,30.03,ESE,121,0.0,0.0,81,0.00,,,0.00,Wunderground v.1.15,2013-06-20 00:20:00,
2013-06-19 20:25:00,61.7,56.1,30.04,ESE,121,0.0,0.0,82,0.00,,,0.00,Wunderground v.1.15,2013-06-20 00:25:00,
2013-06-19 20:35:00,60.6,55.7,30.04,SE,134,0.0,0.0,84,0.00,,,0.00,Wunderground v.1.15,2013-06-20 00:35:00,
2013-06-19 20:45:00,59.7,55.2,30.04,SE,134,0.0,0.0,85,0.00,,,0.00,Wunderground v.1.15,2013-06-20 00:45:00,
2013-06-19 20:55:00,59.0,54.5,30.04,SE,134,0.0,0.0,85,0.00,,,0.00,Wunderground v.1.15,2013-06-20 00:55:00,
2013-06-19 21:05:00,58.1,53.3,30.05,SE,134,0.0,0.0,84,0.00,,,0.00,Wunderground v.1.15,2013-06-20 01:05:00,
2013-06-19 21:10:00,58.0,53.2,30.06,NE,53,0.0,2.0,84,0.00,,,0.00,Wunderground v.1.15,2013-06-20 01:10:00,
2013-06-19 21:20:00,58.3,53.8,30.06,East,90,2.0,2.0,85,0.00,,,0.00,Wunderground v.1.15,2013-06-20 01:20:00,
2013-06-19 21:30:00,57.4,52.9,30.06,SSE,163,0.0,1.0,85,0.00,,,0.00,Wunderground v.1.15,2013-06-20 01:30:00,
2013-06-19 21:40:00,56.8,51.7,30.06,SSE,163,0.0,0.0,83,0.00,,,0.00,Wunderground v.1.15,2013-06-20 01:40:00,
2013-06-19 21:50:00,56.1,50.3,30.07,SSW,213,0.0,0.0,81,0.00,,,0.00,Wunderground v.1.15,2013-06-20 01:50:00,
2013-06-19 21:59:00,55.8,49.7,30.07,SSW,213,0.0,0.0,80,0.00,,,0.00,Wunderground v.1.15,2013-06-20 01:59:00,
2013-06-19 22:05:00,55.7,48.9,30.07,SSW,213,0.0,0.0,78,0.00,,,0.00,Wunderground v.1.15,2013-06-20 02:05:00,
2013-06-19 22:15:00,54.9,47.5,30.08,West,271,0.0,1.0,76,0.00,,,0.00,Wunderground v.1.15,2013-06-20 02:15:00,
2013-06-19 22:25:00,55.1,47.3,30.09,West,271,0.0,0.0,75,0.00,,,0.00,Wunderground v.1.15,2013-06-20 02:25:00,
2013-06-19 22:35:00,54.7,45.8,30.09,West,271,1.0,2.0,72,0.00,,,0.00,Wunderground v.1.15,2013-06-20 02:35:00,
2013-06-19 22:45:00,55.7,46.1,30.10,WSW,253,0.0,1.0,70,0.00,,,0.00,Wunderground v.1.15,2013-06-20 02:45:00,
2013-06-19 22:55:00,55.3,46.8,30.10,WSW,252,0.0,0.0,73,0.00,,,0.00,Wunderground v.1.15,2013-06-20 02:55:00,
2013-06-19 23:05:00,55.2,47.4,30.10,WSW,253,0.0,0.0,75,0.00,,,0.00,Wunderground v.1.15,2013-06-20 03:05:00,
2013-06-19 23:10:00,54.9,48.5,30.10,SSW,196,0.0,0.0,79,0.00,,,0.00,Wunderground v.1.15,2013-06-20 03:10:00,
2013-06-19 23:20:00,54.7,50.0,30.10,SSW,196,0.0,0.0,84,0.00,,,0.00,Wunderground v.1.15,2013-06-20 03:20:00,
2013-06-19 23:30:00,53.6,47.2,30.11,SSW,196,0.0,0.0,79,0.00,,,0.00,Wunderground v.1.15,2013-06-20 03:30:00,
2013-06-19 23:40:00,53.2,47.2,30.11,SSW,198,0.0,0.0,80,0.00,,,0.00,Wunderground v.1.15,2013-06-20 03:40:00,
2013-06-19 23:50:00,52.9,47.2,30.11,SSW,213,0.0,0.0,81,0.00,,,0.00,Wunderground v.1.15,2013-06-20 03:50:00,